Time;durP1;ratioP1;P1;durP2;ratioP2;P2;SDS_P1;SDS_P2;PMS_P1;PMS_P2;Temp;Humidity;BMP_temperature;BMP_pressure;BME280_temperature;BME280_humidity;BME280_pressure;Samples;Min_cycle;Max_cycle;Signal;HPM_P1;HPM_P2
2022/06/15 00:01:40;;;;;;;1.83;1.70;;;;;;;14.63;64.66;99076.00;5031005;28;20026;-59
2022/06/15 00:04:05;;;;;;;1.92;1.73;;;;;;;14.61;64.25;99069.09;5030928;28;20029;-61
2022/06/15 00:06:37;;;;;;;5.80;1.88;;;;;;;14.48;64.64;99057.00;5030613;28;20121;-62
2022/06/15 00:09:03;;;;;;;2.85;1.75;;;;;;;14.59;64.71;99085.44;5029556;28;20037;-61
2022/06/15 00:11:35;;;;;;;4.20;1.70;;;;;;;14.57;64.67;99084.75;5028582;28;20095;-61
2022/06/15 00:14:07;;;;;;;1.92;1.70;;;;;;;14.57;64.82;99075.84;5017012;28;20033;-60
2022/06/15 00:16:33;;;;;;;3.25;1.55;;;;;;;14.50;65.02;99078.34;5030276;28;20033;-58
2022/06/15 00:18:58;;;;;;;2.45;1.40;;;;;;;14.46;64.69;99077.84;5030087;28;20430;-60
2022/06/15 00:21:24;;;;;;;3.33;1.83;;;;;;;14.43;65.07;99088.94;5031129;28;20116;-60
2022/06/15 00:23:50;;;;;;;2.45;1.75;;;;;;;14.35;65.07;99079.03;5030927;28;20052;-60
2022/06/15 00:26:17;;;;;;;2.65;1.70;;;;;;;14.34;65.07;99077.31;5031127;28;20056;-61
2022/06/15 00:28:43;;;;;;;2.08;1.30;;;;;;;14.37;65.24;99095.00;5030460;28;20025;-59
2022/06/15 00:31:08;;;;;;;3.03;1.63;;;;;;;14.35;65.06;99086.25;5031107;28;20041;-61
2022/06/15 00:33:34;;;;;;;5.18;2.13;;;;;;;14.15;65.28;99056.94;5031376;28;20033;-57
2022/06/15 00:36:10;;;;;;;3.65;1.70;;;;;;;14.36;65.27;99098.72;5031475;28;20116;-56
2022/06/15 00:38:42;;;;;;;2.25;1.77;;;;;;;14.35;64.81;99088.94;5030724;28;20037;-57
2022/06/15 00:41:11;;;;;;;1.90;1.42;;;;;;;14.29;64.89;99092.31;5031396;28;20088;-60
2022/06/15 00:43:47;;;;;;;2.35;1.77;;;;;;;14.27;65.45;99095.16;5030748;28;20049;-60
2022/06/15 00:46:15;;;;;;;3.72;1.60;;;;;;;14.27;64.96;99095.16;5030418;28;20052;-60
2022/06/15 00:48:43;;;;;;;7.10;1.90;;;;;;;14.21;65.31;99093.97;5029419;28;20824;-60
2022/06/15 00:51:09;;;;;;;2.40;1.50;;;;;;;14.18;65.39;99091.59;5031148;28;20451;-60
2022/06/15 00:53:35;;;;;;;4.60;2.05;;;;;;;14.12;64.83;99080.69;5030231;28;20030;-60
2022/06/15 00:56:02;;;;;;;4.70;1.70;;;;;;;14.19;64.74;99097.84;5029997;28;20029;-60
2022/06/15 00:58:27;;;;;;;5.65;1.90;;;;;;;14.18;64.77;99088.91;5030511;28;20037;-60
2022/06/15 01:00:56;;;;;;;4.03;1.95;;;;;;;14.17;64.72;99092.63;5030195;28;20036;-60
2022/06/15 01:03:21;;;;;;;7.90;1.85;;;;;;;14.13;64.58;99080.50;5014029;28;20040;-60
2022/06/15 01:06:03;;;;;;;4.68;1.65;;;;;;;14.26;64.42;99103.41;5029234;28;20025;-60
2022/06/15 01:08:41;;;;;;;4.18;1.70;;;;;;;14.16;64.69;99092.78;5029905;28;20041;-60
2022/06/15 01:11:14;;;;;;;3.03;1.65;;;;;;;14.19;64.19;99093.28;5031014;28;20043;-60
2022/06/15 01:13:57;;;;;;;3.90;1.45;;;;;;;14.24;63.54;99091.97;5030068;28;20121;-60
2022/06/15 01:16:34;;;;;;;2.33;1.63;;;;;;;14.28;64.34;99096.00;5030181;28;20079;-60
2022/06/15 01:19:04;;;;;;;3.20;1.75;;;;;;;14.19;64.63;99089.78;5030404;28;20467;-60
2022/06/15 01:21:56;;;;;;;3.03;1.70;;;;;;;14.25;64.79;99090.97;5030309;28;20041;-62
2022/06/15 01:25:10;;;;;;;3.38;1.70;;;;;;;14.27;64.94;99094.34;5030329;28;20045;-61
2022/06/15 01:27:39;;;;;;;5.22;1.70;;;;;;;14.17;64.56;99087.22;4991437;28;20532;-61
2022/06/15 01:30:18;;;;;;;2.45;1.52;;;;;;;14.23;63.63;99093.81;5029345;28;20037;-61
2022/06/15 01:33:11;;;;;;;4.35;1.60;;;;;;;14.26;63.97;99089.97;5029835;28;20766;-61
2022/06/15 01:35:51;;;;;;;3.17;1.63;;;;;;;14.27;64.10;99095.16;5017064;28;20049;-56
2022/06/15 01:38:33;;;;;;;4.45;1.70;;;;;;;14.27;64.27;99089.78;5030062;28;20034;-61
2022/06/15 01:41:13;;;;;;;3.55;1.90;;;;;;;14.21;64.25;99090.44;5010658;28;20065;-62
2022/06/15 01:43:48;;;;;;;6.45;1.60;;;;;;;14.26;64.04;99095.34;5025862;28;20389;-61
2022/06/15 01:46:14;;;;;;;3.00;1.55;;;;;;;14.19;62.98;99084.38;5030191;28;20477;-60
2022/06/15 01:48:41;;;;;;;3.63;1.92;;;;;;;14.21;63.56;99083.19;5030281;28;20040;-60
2022/06/15 01:51:16;;;;;;;4.85;1.55;;;;;;;14.28;63.59;99085.25;5028238;28;20033;-60
2022/06/15 01:53:55;;;;;;;5.27;1.83;;;;;;;14.30;63.41;99091.31;5029874;28;20040;-60
2022/06/15 01:56:29;;;;;;;4.18;1.80;;;;;;;14.28;62.91;99090.63;5029214;28;20105;-61
2022/06/15 01:59:02;;;;;;;1.70;1.60;;;;;;;14.31;63.19;99084.91;5031205;28;20032;-60
2022/06/15 02:01:35;;;;;;;3.50;1.85;;;;;;;14.33;62.88;99080.19;5033320;28;20455;-61
2022/06/15 02:04:26;;;;;;;6.07;1.98;;;;;;;14.35;63.14;99083.56;5033548;28;20389;-60
2022/06/15 02:07:05;;;;;;;3.15;1.52;;;;;;;14.38;62.95;99095.88;5033796;28;20040;-59
2022/06/15 02:09:39;;;;;;;1.95;1.55;;;;;;;14.32;62.27;99084.72;5033717;28;20544;-60
2022/06/15 02:12:08;;;;;;;3.88;1.80;;;;;;;14.34;62.27;99088.09;5031746;28;20110;-61
2022/06/15 02:14:41;;;;;;;3.40;1.50;;;;;;;14.44;62.36;99089.81;5033441;28;20037;-62
2022/06/15 02:17:13;;;;;;;2.25;1.60;;;;;;;14.55;61.80;99091.31;5033212;28;20087;-59
2022/06/15 02:19:43;;;;;;;2.08;1.70;;;;;;;14.73;60.75;99083.09;5032274;28;20038;-61
2022/06/15 02:22:13;;;;;;;5.28;1.60;;;;;;;14.90;60.24;99083.91;5033160;28;20068;-61
2022/06/15 02:24:40;;;;;;;3.35;1.45;;;;;;;15.09;59.98;99084.56;5033035;28;20049;-61
2022/06/15 02:27:08;;;;;;;8.05;1.50;;;;;;;15.40;58.69;99086.50;5033655;28;20171;-60
2022/06/15 02:29:38;;;;;;;5.00;1.40;;;;;;;15.63;57.30;99073.13;5033857;28;20489;-59
2022/06/15 02:32:09;;;;;;;2.08;1.25;;;;;;;15.75;56.38;99044.72;5032937;28;20041;-60
2022/06/15 02:34:35;;;;;;;4.18;1.50;;;;;;;16.15;55.70;99071.66;5033338;28;20060;-60
2022/06/15 02:37:01;;;;;;;4.38;1.40;;;;;;;16.62;54.54;99067.09;5033282;28;20116;-61
2022/06/15 02:39:26;;;;;;;2.38;1.60;;;;;;;17.10;53.24;99070.56;5033194;28;20029;-60
2022/06/15 02:42:01;;;;;;;1.90;1.50;;;;;;;17.40;52.48;99048.97;5032735;28;20091;-60
2022/06/15 02:44:30;;;;;;;4.38;1.38;;;;;;;17.74;51.13;99086.25;5014012;28;20045;-60
2022/06/15 02:46:57;;;;;;;3.17;1.50;;;;;;;17.86;50.80;99088.47;5015619;28;20084;-60
2022/06/15 02:49:23;;;;;;;1.98;1.30;;;;;;;17.81;50.91;99078.19;5031675;28;20034;-60
2022/06/15 02:51:55;;;;;;;2.47;1.40;;;;;;;17.67;51.47;99079.91;5032304;28;20117;-60
2022/06/15 02:54:36;;;;;;;4.47;1.30;;;;;;;17.68;50.70;99080.75;5032636;28;20497;-60
2022/06/15 02:57:02;;;;;;;3.92;1.27;;;;;;;17.67;50.08;99081.78;5033299;28;20025;-60
2022/06/15 02:59:27;;;;;;;1.42;1.08;;;;;;;17.99;49.27;99069.69;5033020;28;20048;-60
2022/06/15 03:01:55;;;;;;;2.38;1.20;;;;;;;18.34;48.36;99055.50;5032374;28;20104;-58
2022/06/15 03:04:21;;;;;;;5.22;1.30;;;;;;;18.97;46.92;99078.34;5032417;28;20029;-60
2022/06/15 03:06:46;;;;;;;1.48;1.20;;;;;;;19.45;45.58;99083.03;5031124;28;20091;-60
2022/06/15 03:09:12;;;;;;;3.40;1.38;;;;;;;19.87;44.51;99072.16;5032174;28;20035;-59
2022/06/15 03:11:40;;;;;;;5.30;1.10;;;;;;;20.18;43.82;99084.44;5031575;28;20116;-60
2022/06/15 03:14:06;;;;;;;2.75;1.80;;;;;;;20.50;43.18;99077.41;5031438;28;20112;-61
2022/06/15 03:16:31;;;;;;;6.00;1.35;;;;;;;20.84;42.23;99079.31;5030838;28;20443;-60
2022/06/15 03:18:56;;;;;;;2.15;1.35;;;;;;;21.10;41.14;99055.84;5032358;28;20083;-62
2022/06/15 03:21:22;;;;;;;4.55;1.50;;;;;;;21.54;40.18;99077.94;5032013;28;20440;-62
2022/06/15 03:23:48;;;;;;;3.10;1.10;;;;;;;21.86;39.55;99087.06;5031266;28;20053;-60
2022/06/15 03:26:13;;;;;;;2.50;1.10;;;;;;;22.11;38.97;99083.59;5031510;28;20045;-60
2022/06/15 03:28:39;;;;;;;1.83;1.15;;;;;;;22.39;38.34;99078.84;5031899;28;20165;-60
2022/06/15 03:31:05;;;;;;;2.15;1.00;;;;;;;22.73;37.89;99084.91;5031285;28;20038;-61
2022/06/15 03:33:31;;;;;;;1.67;1.20;;;;;;;23.12;37.08;99084.78;5031697;28;20072;-62
2022/06/15 03:35:57;;;;;;;2.75;1.05;;;;;;;23.34;36.31;99082.50;5032422;28;20035;-62
2022/06/15 03:38:23;;;;;;;7.25;1.50;;;;;;;23.61;36.33;99101.34;5030885;28;20068;-61
2022/06/15 03:40:49;;;;;;;3.85;1.33;;;;;;;23.70;35.20;99069.91;5031530;28;20036;-61
2022/06/15 03:43:15;;;;;;;5.95;1.63;;;;;;;23.92;34.61;99089.41;5030303;28;20468;-61
2022/06/15 03:45:44;;;;;;;2.25;1.40;;;;;;;23.73;34.83;99091.28;5030627;28;20449;-60
2022/06/15 03:48:11;;;;;;;3.25;1.17;;;;;;;23.59;34.77;99096.09;5032272;28;20098;-62
2022/06/15 03:50:37;;;;;;;4.82;1.20;;;;;;;23.57;34.71;99087.28;5031825;28;20381;-60
2022/06/15 03:53:04;;;;;;;2.53;1.20;;;;;;;23.41;35.45;99085.16;5031528;28;20459;-61
2022/06/15 03:55:30;;;;;;;6.72;1.58;;;;;;;23.36;35.10;99080.38;5020674;28;20036;-60
2022/06/15 03:57:56;;;;;;;1.63;1.08;;;;;;;23.39;35.17;99093.59;5031198;28;20037;-61
2022/06/15 04:00:27;;;;;;;2.75;1.20;;;;;;;23.24;35.37;99093.91;5031278;28;20152;-60
2022/06/15 04:02:53;;;;;;;1.85;1.00;;;;;;;23.79;34.26;99092.28;5029858;28;20108;-61
2022/06/15 04:05:21;;;;;;;3.15;1.10;;;;;;;24.47;33.00;99089.50;5032024;28;20428;-61
2022/06/15 04:10:33;;;;;;;1.50;0.95;;;;;;;25.41;31.37;99087.13;5030878;28;20090;-61
2022/06/15 04:12:59;;;;;;;4.13;1.15;;;;;;;25.86;30.00;99093.88;5031811;28;20033;-60
2022/06/15 04:15:24;;;;;;;2.78;1.10;;;;;;;26.09;29.54;99090.22;5030906;28;20167;-60
2022/06/15 04:17:50;;;;;;;1.42;0.98;;;;;;;26.23;29.33;99088.88;5030404;28;20238;-61
2022/06/15 04:20:33;;;;;;;2.92;0.88;;;;;;;26.78;28.52;99091.19;5031967;28;20029;-60
2022/06/15 04:23:11;;;;;;;4.53;1.05;;;;;;;27.43;28.65;99101.81;5031057;28;20033;-61
2022/06/15 04:25:40;;;;;;;2.90;1.10;;;;;;;27.86;27.42;99096.66;5030636;28;20030;-60
2022/06/15 04:28:08;;;;;;;2.38;0.98;;;;;;;28.99;25.71;99102.50;5030895;28;20036;-61
2022/06/15 04:30:34;;;;;;;3.75;1.00;;;;;;;29.90;24.16;99083.19;5030902;28;20033;-63
2022/06/15 04:33:00;;;;;;;2.65;0.85;;;;;;;30.97;22.62;99091.13;5031630;28;20041;-60
2022/06/15 04:35:25;;;;;;;8.07;1.05;;;;;;;31.92;21.54;99097.00;5030836;28;20441;-61
2022/06/15 04:37:51;;;;;;;2.08;0.95;;;;;;;32.71;20.16;99092.66;5030673;28;20139;-60
2022/06/15 04:40:17;;;;;;;1.00;0.80;;;;;;;33.28;19.79;99100.50;5031617;28;20047;-61
2022/06/15 04:42:43;;;;;;;2.40;1.00;;;;;;;33.64;19.40;99086.25;5031181;28;20037;-60
2022/06/15 04:45:10;;;;;;;3.15;0.80;;;;;;;34.21;18.78;99104.97;5030964;28;20036;-61
2022/06/15 04:47:36;;;;;;;2.75;0.80;;;;;;;34.25;18.13;99098.81;5030338;28;20036;-61
2022/06/15 04:50:04;;;;;;;2.13;1.08;;;;;;;34.97;17.96;99097.72;5031528;28;20060;-61
2022/06/15 04:52:29;;;;;;;1.33;0.93;;;;;;;35.29;17.60;99090.47;5030616;28;20438;-61
2022/06/15 04:54:54;;;;;;;2.40;0.82;;;;;;;34.64;17.17;99089.34;5030425;28;20057;-60
2022/06/15 04:57:20;;;;;;;1.95;0.77;;;;;;;33.05;19.62;99094.63;5030279;28;20030;-61
2022/06/15 04:59:45;;;;;;;4.28;0.80;;;;;;;32.53;19.62;99113.59;5031090;28;20029;-61
2022/06/15 05:02:11;;;;;;;4.82;0.82;;;;;;;33.21;19.00;99086.13;5030649;28;20029;-60
2022/06/15 05:04:36;;;;;;;4.32;1.02;;;;;;;34.28;18.26;99101.00;5030631;28;20033;-60
2022/06/15 05:07:02;;;;;;;3.03;0.90;;;;;;;34.40;18.04;99103.31;5030344;28;20064;-61
2022/06/15 05:09:28;;;;;;;3.35;0.82;;;;;;;34.41;17.70;99105.78;5030081;28;20385;-62
2022/06/15 05:11:54;;;;;;;1.50;0.88;;;;;;;34.27;17.83;99100.16;5030502;28;20048;-64
2022/06/15 05:14:20;;;;;;;1.33;0.90;;;;;;;34.16;17.82;99099.47;5030100;28;20371;-62
2022/06/15 05:16:45;;;;;;;0.88;0.65;;;;;;;32.47;19.54;99112.78;5030713;28;20065;-66
2022/06/15 05:19:11;;;;;;;2.13;0.70;;;;;;;30.85;21.28;99099.69;5029600;28;20060;-67
2022/06/15 05:21:42;;;;;;;2.00;0.70;;;;;;;31.97;20.25;99117.47;5030072;28;20052;-64
2022/06/15 05:24:09;;;;;;;1.25;0.40;;;;;;;33.40;18.72;99127.84;5030061;28;20128;-64
2022/06/15 05:26:34;;;;;;;1.50;0.60;;;;;;;32.92;18.55;99111.91;5030063;28;20037;-71
2022/06/15 05:29:00;;;;;;;5.28;0.60;;;;;;;31.51;20.26;99086.06;5030129;28;20473;-68
2022/06/15 05:31:25;;;;;;;3.45;0.70;;;;;;;30.04;22.10;99115.81;5030055;28;20029;-69
2022/06/15 05:33:54;;;;;;;1.25;0.68;;;;;;;29.10;23.39;99125.47;5031105;28;20037;-69
2022/06/15 05:36:23;;;;;;;1.58;0.70;;;;;;;28.39;24.25;99127.25;5034334;28;20072;-71
2022/06/15 05:38:49;;;;;;;2.38;0.70;;;;;;;27.56;25.07;99130.91;5033872;28;20037;-71
2022/06/15 05:41:14;;;;;;;4.35;0.90;;;;;;;27.15;25.47;99122.84;5034288;28;20461;-70
2022/06/15 05:43:44;;;;;;;3.72;1.45;;;;;;;28.27;24.48;99119.16;5033967;28;20120;-69
2022/06/15 05:46:22;;;;;;;3.45;1.27;;;;;;;29.71;23.04;99129.72;5033664;28;20037;-68
2022/06/15 05:48:48;;;;;;;2.22;0.90;;;;;;;28.72;23.62;99121.81;5033848;28;20389;-70
2022/06/15 05:51:13;;;;;;;4.57;1.05;;;;;;;27.52;25.52;99119.59;5033836;28;20037;-70
2022/06/15 05:53:39;;;;;;;2.60;0.80;;;;;;;27.13;25.75;99128.63;5033764;28;20436;-63
2022/06/15 05:56:04;;;;;;;4.50;1.02;;;;;;;26.34;26.75;99124.75;5033879;28;20042;-70
2022/06/15 05:58:30;;;;;;;2.25;0.80;;;;;;;25.23;28.44;99130.88;5033895;28;20041;-71
2022/06/15 06:00:55;;;;;;;4.40;0.60;;;;;;;24.02;30.78;99131.78;5034026;28;20338;-70
2022/06/15 06:03:21;;;;;;;2.38;0.75;;;;;;;23.06;32.55;99136.50;5033473;28;20030;-68
2022/06/15 06:05:46;;;;;;;6.07;1.00;;;;;;;22.28;33.59;99113.09;5033603;28;20043;-69
2022/06/15 06:08:12;;;;;;;3.65;0.75;;;;;;;21.83;34.69;99135.72;5034140;28;20108;-69
2022/06/15 06:10:37;;;;;;;3.95;1.10;;;;;;;21.29;36.13;99119.47;5033816;28;20466;-71
2022/06/15 06:13:03;;;;;;;2.58;0.82;;;;;;;21.63;35.38;99121.06;5032217;28;20132;-62
2022/06/15 06:15:29;;;;;;;1.27;0.88;;;;;;;21.99;35.60;99134.41;5027248;28;20037;-69
2022/06/15 06:17:56;;;;;;;5.72;1.00;;;;;;;22.29;34.39;99122.94;5033350;28;20072;-69
2022/06/15 06:20:21;;;;;;;1.73;0.70;;;;;;;22.59;33.94;99122.38;5028815;28;20064;-67
2022/06/15 06:22:47;;;;;;;2.25;0.80;;;;;;;22.71;33.63;99133.41;5032202;28;20069;-67
2022/06/15 06:25:12;;;;;;;3.42;0.80;;;;;;;23.00;33.16;99131.06;5032904;28;20041;-65
2022/06/15 06:27:38;;;;;;;2.60;0.70;;;;;;;25.67;29.12;99117.88;5033101;28;20049;-69
2022/06/15 06:30:04;;;;;;;2.25;0.68;;;;;;;29.63;22.90;99113.69;5032902;28;20029;-67
2022/06/15 06:32:30;;;;;;;3.58;0.60;;;;;;;31.64;19.95;99101.22;5032484;28;20045;-67
2022/06/15 06:34:55;;;;;;;1.50;0.70;;;;;;;33.46;17.82;99125.84;5033183;28;20098;-64
2022/06/15 06:37:22;;;;;;;2.15;0.70;;;;;;;35.52;16.16;99120.41;5033761;28;20604;-67
2022/06/15 06:39:54;;;;;;;3.97;0.70;;;;;;;37.66;14.79;99126.34;5033020;28;20021;-70
2022/06/15 06:42:20;;;;;;;3.03;0.80;;;;;;;38.73;13.28;99113.03;5032888;28;20030;-71
2022/06/15 06:44:45;;;;;;;1.45;0.82;;;;;;;39.01;13.42;99118.28;5032774;28;20526;-69
2022/06/15 06:47:10;;;;;;;1.60;0.70;;;;;;;40.50;11.78;99115.09;5031649;28;20458;-68
2022/06/15 06:49:36;;;;;;;3.78;0.90;;;;;;;41.03;11.27;99099.44;5032852;28;20036;-70
2022/06/15 06:52:02;;;;;;;2.90;0.70;;;;;;;39.34;12.33;99117.72;5032629;28;20029;-66
2022/06/15 06:54:29;;;;;;;1.83;0.80;;;;;;;38.91;12.65;99122.25;5032202;28;20064;-68
2022/06/15 06:56:55;;;;;;;2.30;0.80;;;;;;;39.54;11.78;99118.13;5032609;28;20385;-68
2022/06/15 06:59:20;;;;;;;3.33;0.82;;;;;;;37.76;13.46;99120.44;5032963;28;20112;-68
2022/06/15 07:01:47;;;;;;;1.27;0.82;;;;;;;34.97;15.70;99103.28;5032716;28;20037;-70
2022/06/15 07:04:14;;;;;;;4.15;0.82;;;;;;;33.83;16.98;99127.09;5032040;28;20036;-66
2022/06/15 07:06:40;;;;;;;1.42;0.70;;;;;;;34.41;16.18;99128.03;5032990;28;20041;-68
2022/06/15 07:09:06;;;;;;;2.20;0.80;;;;;;;34.67;16.73;99124.88;5031816;28;20489;-68
2022/06/15 07:11:33;;;;;;;2.47;0.63;;;;;;;33.64;17.39;99143.69;5032665;28;20473;-68
2022/06/15 07:13:59;;;;;;;1.17;0.50;;;;;;;31.82;18.70;99137.75;5032523;28;20112;-68
2022/06/15 07:16:25;;;;;;;4.05;0.60;;;;;;;30.06;20.77;99133.78;5032367;28;20025;-67
2022/06/15 07:18:52;;;;;;;1.73;0.70;;;;;;;28.91;22.10;99138.78;5031944;28;20033;-68
2022/06/15 07:21:24;;;;;;;1.25;0.55;;;;;;;28.13;23.15;99143.47;5028746;28;20021;-67
2022/06/15 07:23:52;;;;;;;1.25;0.80;;;;;;;28.89;21.95;99154.75;5030247;28;20106;-68
2022/06/15 07:26:22;;;;;;;2.80;0.80;;;;;;;29.34;22.11;99150.72;5032298;28;20069;-66
2022/06/15 07:28:49;;;;;;;3.53;0.63;;;;;;;28.81;22.52;99161.56;5031650;28;20045;-67
2022/06/15 07:31:21;;;;;;;3.00;0.70;;;;;;;28.01;23.89;99154.59;5032453;28;20038;-65
2022/06/15 07:33:46;;;;;;;2.15;0.60;;;;;;;26.39;25.99;99145.94;5031894;28;20167;-66
2022/06/15 07:36:12;;;;;;;2.80;0.85;;;;;;;26.01;26.94;99150.94;5032278;28;20449;-67
2022/06/15 07:38:37;;;;;;;3.53;0.60;;;;;;;28.73;23.48;99149.09;5032259;28;20120;-69
2022/06/15 07:41:03;;;;;;;3.58;0.88;;;;;;;31.92;19.84;99135.75;5031983;28;20033;-66
2022/06/15 07:43:28;;;;;;;2.72;0.63;;;;;;;35.16;16.45;99116.31;5031334;28;20026;-67
2022/06/15 07:45:54;;;;;;;1.63;0.65;;;;;;;38.59;13.77;99132.00;5032058;28;20037;-65
2022/06/15 07:51:04;;;;;;;3.40;0.57;;;;;;;42.48;10.16;99144.69;5030627;28;20032;-67
2022/06/15 07:53:29;;;;;;;3.75;0.70;;;;;;;41.42;10.71;99135.69;5030232;28;20029;-68
2022/06/15 07:55:56;;;;;;;2.53;0.80;;;;;;;40.33;11.54;99136.53;5030868;28;20037;-66
2022/06/15 07:58:22;;;;;;;2.38;0.85;;;;;;;41.15;10.87;99139.91;5031014;28;20037;-67
2022/06/15 08:00:49;;;;;;;2.47;0.73;;;;;;;40.10;11.45;99156.44;5028760;28;20045;-67
2022/06/15 08:03:17;;;;;;;2.72;0.90;;;;;;;38.14;12.59;99147.88;5030754;28;20025;-69
2022/06/15 08:05:49;;;;;;;3.17;0.80;;;;;;;38.01;13.32;99157.19;5031349;28;20461;-66
2022/06/15 08:08:19;;;;;;;3.20;0.68;;;;;;;38.40;12.63;99154.63;5031003;28;20041;-67
2022/06/15 08:10:45;;;;;;;0.65;0.60;;;;;;;36.85;13.80;99149.31;5030840;28;20052;-68
2022/06/15 08:13:11;;;;;;;3.30;0.80;;;;;;;34.94;15.70;99165.03;5031465;28;20033;-68
2022/06/15 08:15:38;;;;;;;2.45;1.08;;;;;;;32.65;17.28;99158.38;5031405;28;20052;-73
2022/06/15 08:18:10;;;;;;;3.65;1.02;;;;;;;30.40;19.88;99171.16;5031252;28;20056;-73
2022/06/15 08:20:41;;;;;;;2.65;0.80;;;;;;;28.19;22.89;99180.97;5027559;28;20030;-72
2022/06/15 08:23:12;;;;;;;3.15;0.82;;;;;;;26.93;24.69;99176.63;5061930;28;20068;-67
2022/06/15 08:25:43;;;;;;;2.35;0.80;;;;;;;26.04;26.23;99158.66;5030827;28;20099;-65
2022/06/15 08:28:10;;;;;;;3.20;0.68;;;;;;;25.51;26.99;99183.31;5030319;28;20060;-66
2022/06/15 08:30:37;;;;;;;4.70;0.70;;;;;;;24.83;27.66;99160.78;5030890;28;20390;-71
2022/06/15 08:33:04;;;;;;;3.38;1.00;;;;;;;24.24;28.62;99181.38;5030438;28;20033;-72
2022/06/15 08:35:30;;;;;;;3.67;0.93;;;;;;;23.53;30.34;99189.88;5030564;28;20044;-67
2022/06/15 08:37:56;;;;;;;2.00;0.90;;;;;;;23.02;31.21;99176.22;5029160;28;20420;-67
2022/06/15 08:40:22;;;;;;;3.80;0.90;;;;;;;23.02;31.90;99195.31;5029394;28;20068;-68
2022/06/15 08:42:59;;;;;;;2.05;0.77;;;;;;;23.06;31.61;99184.81;5030448;28;20037;-72
2022/06/15 08:45:32;;;;;;;2.90;0.80;;;;;;;23.11;31.08;99204.09;5030423;28;20078;-68
2022/06/15 08:48:08;;;;;;;2.35;0.68;;;;;;;22.82;31.48;99191.91;5029510;28;20029;-68
2022/06/15 08:50:35;;;;;;;;;;;;;;;23.28;29.46;99192.66;5030522;28;20033;-66
2022/06/15 08:53:16;;;;;;;2.55;0.60;;;;;;;22.88;31.92;99185.56;5030530;28;19917;-70
2022/06/15 08:56:06;;;;;;;2.10;0.60;;;;;;;23.25;31.88;99193.03;5029561;28;20055;-73
2022/06/15 08:58:50;;;;;;;0.98;0.60;;;;;;;23.83;29.90;99156.38;5025204;28;20475;-68
2022/06/15 09:01:20;;;;;;;1.92;0.63;;;;;;;24.01;29.83;99176.56;5029997;28;20112;-68
2022/06/15 09:04:12;;;;;;;4.40;1.00;;;;;;;24.07;29.57;99181.16;5030186;28;20129;-66
2022/06/15 09:07:08;;;;;;;3.55;0.90;;;;;;;23.66;30.05;99188.94;5029007;28;20108;-68
2022/06/15 09:09:45;;;;;;;1.60;0.80;;;;;;;23.35;31.06;99182.50;5029442;28;20029;-67
2022/06/15 09:12:52;;;;;;;3.35;0.90;;;;;;;23.17;30.97;99191.44;5029537;28;20045;-66
2022/06/15 09:15:29;;;;;;;4.03;1.00;;;;;;;22.70;32.93;99178.97;5029608;28;20038;-66
2022/06/15 09:17:57;;;;;;;2.45;0.80;;;;;;;22.33;33.33;99184.16;5027582;28;20049;-67
2022/06/15 09:20:46;;;;;;;2.85;0.63;;;;;;;22.34;33.16;99191.28;5027753;28;20025;-71
2022/06/15 09:23:29;;;;;;;2.63;0.68;;;;;;;22.60;32.57;99192.22;5029321;28;20117;-72
2022/06/15 09:26:02;;;;;;;1.98;0.55;;;;;;;22.81;32.69;99188.34;5030247;28;20125;-72
2022/06/15 09:28:59;;;;;;;2.83;0.65;;;;;;;23.34;31.16;99197.22;5029600;28;20040;-72
2022/06/15 09:31:32;;;;;;;2.03;0.70;;;;;;;23.36;31.43;99195.91;5021365;28;20095;-71
2022/06/15 09:34:04;;;;;;;2.20;0.80;;;;;;;23.33;31.29;99199.09;5029910;28;20084;-72
2022/06/15 09:36:35;;;;;;;3.63;0.95;;;;;;;22.99;31.86;99203.97;5030018;28;20131;-73
2022/06/15 09:39:02;;;;;;;2.28;0.77;;;;;;;22.67;32.30;99203.13;5029613;28;20056;-73
2022/06/15 09:41:47;;;;;;;6.88;0.93;;;;;;;22.80;32.45;99206.59;5029421;28;20030;-72
2022/06/15 09:44:40;;;;;;;6.35;0.90;;;;;;;22.94;31.68;99198.34;5029236;28;20034;-68
2022/06/15 09:47:24;;;;;;;1.52;0.90;;;;;;;22.86;32.01;99196.72;5023792;28;20046;-71
2022/06/15 09:49:53;;;;;;;4.30;0.88;;;;;;;22.78;32.30;99208.72;5011065;28;20034;-69
2022/06/15 09:52:45;;;;;;;2.92;0.82;;;;;;;22.68;32.94;99212.97;5009101;28;20087;-68
2022/06/15 09:55:19;;;;;;;1.20;0.77;;;;;;;22.83;32.21;99208.06;5023695;28;20049;-67
2022/06/15 09:57:46;;;;;;;2.50;0.90;;;;;;;22.77;32.63;99212.50;5029403;28;20212;-69
2022/06/15 10:00:14;;;;;;;6.22;0.93;;;;;;;22.89;32.57;99212.63;5028750;28;20100;-70
2022/06/15 10:02:44;;;;;;;3.03;0.77;;;;;;;23.05;31.93;99210.44;5026801;28;20033;-67
2022/06/15 10:05:21;;;;;;;0.93;0.73;;;;;;;23.22;31.20;99208.81;5027849;28;20037;-66
2022/06/15 10:07:48;;;;;;;3.13;0.85;;;;;;;22.79;32.36;99202.19;5029682;28;20061;-65
2022/06/15 10:10:16;;;;;;;2.42;0.73;;;;;;;22.60;32.97;99220.38;5027012;28;20496;-70
2022/06/15 10:12:56;;;;;;;1.83;1.00;;;;;;;22.38;33.25;99222.53;5029175;28;20052;-73
2022/06/15 10:15:28;;;;;;;3.42;0.70;;;;;;;22.30;33.39;99215.41;5027501;28;20106;-67
2022/06/15 10:17:57;;;;;;;4.65;1.25;;;;;;;22.21;33.45;99224.91;5029512;28;20373;-66
2022/06/15 10:20:36;;;;;;;2.97;0.90;;;;;;;22.20;33.55;99225.94;5029030;28;20037;-61
2022/06/15 10:23:15;;;;;;;1.33;0.70;;;;;;;22.00;34.00;99226.03;5033068;28;20057;-67
2022/06/15 10:25:50;;;;;;;2.17;0.80;;;;;;;22.01;33.94;99216.78;5032605;28;20108;-66
2022/06/15 10:28:26;;;;;;;2.40;0.98;;;;;;;22.23;33.93;99214.63;5033585;28;20079;-67
2022/06/15 10:30:56;;;;;;;2.33;0.63;;;;;;;22.69;32.94;99226.41;5033395;28;20034;-75
2022/06/15 10:33:22;;;;;;;1.75;0.90;;;;;;;23.11;32.36;99214.16;5031580;28;20029;-71
2022/06/15 10:35:55;;;;;;;4.43;0.70;;;;;;;23.54;31.56;99210.69;5015142;28;20564;-64
2022/06/15 10:38:21;;;;;;;4.88;0.80;;;;;;;23.70;30.90;99216.66;5033532;28;20037;-64
2022/06/15 10:41:45;;;;;;;2.97;0.80;;;;;;;24.03;31.11;99205.41;5032548;28;20045;-69
2022/06/15 10:43:47;;;;;;;2.80;0.95;;;;;;;24.20;30.09;99199.28;5032195;28;20044;-69
2022/06/15 10:46:15;;;;;;;0.82;0.80;;;;;;;24.28;30.17;99211.81;5030127;28;20045;-69
2022/06/15 10:48:46;;;;;;;8.65;0.98;;;;;;;24.43;30.04;99220.47;5032368;28;20037;-67
2022/06/15 10:51:32;;;;;;;9.43;1.25;;;;;;;24.36;29.30;99190.47;5031223;28;20037;-71
2022/06/15 10:54:21;;;;;;;2.70;0.77;;;;;;;24.74;29.14;99225.97;5031243;28;20037;-69
2022/06/15 11:02:42;;;;;;;3.58;0.80;;;;;;;24.56;29.38;99218.63;5026358;28;20030;-67
2022/06/15 11:05:08;;;;;;;0.90;0.68;;;;;;;24.51;29.42;99230.28;5036083;28;20112;-68
2022/06/15 11:07:55;;;;;;;2.78;0.65;;;;;;;24.61;29.08;99236.03;5032055;28;20112;-69
2022/06/15 11:10:32;;;;;;;4.47;1.02;;;;;;;24.37;29.26;99221.41;5033064;28;20041;-71
2022/06/15 11:13:02;;;;;;;2.15;0.70;;;;;;;23.99;30.39;99227.91;5032177;28;20465;-65
2022/06/15 11:18:29;;;;;;;3.42;1.60;;;;;;;23.77;30.53;99225.59;5033138;28;20079;-75
2022/06/15 11:21:01;;;;;;;5.35;1.08;;;;;;;23.45;30.89;99225.69;5013990;28;20041;-76
2022/06/15 11:23:43;;;;;;;2.10;0.80;;;;;;;23.06;31.66;99217.56;5016111;28;20062;-73
2022/06/15 11:29:21;;;;;;;0.93;0.88;;;;;;;22.59;32.46;99235.06;5029989;28;20029;-78
2022/06/15 11:31:48;;;;;;;2.03;0.93;;;;;;;22.13;33.36;99247.78;5031283;28;20399;-66
2022/06/15 11:34:20;;;;;;;2.83;1.10;;;;;;;21.89;33.81;99250.13;5031966;28;20065;-66
2022/06/15 11:36:52;;;;;;;2.75;1.10;;;;;;;21.87;34.25;99246.78;5032079;28;20040;-68
2022/06/15 11:39:41;;;;;;;5.05;1.17;;;;;;;22.19;33.56;99244.22;5030929;28;20039;-74
2022/06/15 11:42:14;;;;;;;2.67;0.82;;;;;;;22.31;33.45;99240.81;5030367;28;20037;-70
2022/06/15 11:44:43;;;;;;;2.13;1.15;;;;;;;22.23;33.94;99226.38;5030340;28;20041;-71
2022/06/15 11:47:30;;;;;;;3.72;1.02;;;;;;;22.43;33.40;99244.56;5028948;28;20037;-69
2022/06/15 11:50:22;;;;;;;2.60;1.40;;;;;;;22.60;33.12;99244.06;5030361;28;20034;-67
2022/06/15 11:52:57;;;;;;;7.70;0.93;;;;;;;22.29;34.07;99246.47;5031857;28;20041;-68
2022/06/15 11:56:00;;;;;;;5.78;1.38;;;;;;;22.34;33.95;99254.88;5032618;28;20095;-68
2022/06/15 11:59:03;;;;;;;5.57;1.58;;;;;;;22.16;34.12;99258.25;5026953;28;20171;-66
2022/06/15 12:01:50;;;;;;;3.28;1.15;;;;;;;21.78;34.84;99267.97;5031375;28;20124;-70
2022/06/15 12:05:00;;;;;;;2.95;1.13;;;;;;;21.76;34.67;99252.91;5031893;28;20060;-70
2022/06/15 12:07:38;;;;;;;2.60;2.05;;;;;;;21.80;35.04;99251.41;5022909;28;20053;-66
2022/06/15 12:10:25;;;;;;;4.63;1.70;;;;;;;21.78;35.28;99234.44;5031627;28;20500;-70